sensor_id;sensor_type;location;lat;lon;timestamp;temperature;humidity
25024;DHT22;13033;50.936;5.334;2023-04-15T00:00:12;9.70;99.90
25024;DHT22;13033;50.936;5.334;2023-04-15T00:02:38;9.70;99.90
25024;DHT22;13033;50.936;5.334;2023-04-15T00:05:04;9.90;99.90
25024;DHT22;13033;50.936;5.334;2023-04-15T00:07:30;10.10;99.90
25024;DHT22;13033;50.936;5.334;2023-04-15T00:09:57;10.20;99.90
25024;DHT22;13033;50.936;5.334;2023-04-15T00:12:27;10.10;99.90
25024;DHT22;13033;50.936;5.334;2023-04-15T00:14:53;10.00;99.90
25024;DHT22;13033;50.936;5.334;2023-04-15T00:17:19;10.10;99.90
25024;DHT22;13033;50.936;5.334;2023-04-15T00:19:44;10.10;99.90
25024;DHT22;13033;50.936;5.334;2023-04-15T00:22:11;10.10;99.90
25024;DHT22;13033;50.936;5.334;2023-04-15T00:24:37;9.90;99.90
25024;DHT22;13033;50.936;5.334;2023-04-15T00:27:03;9.80;99.90
25024;DHT22;13033;50.936;5.334;2023-04-15T00:29:29;9.70;99.90
25024;DHT22;13033;50.936;5.334;2023-04-15T00:31:55;9.70;99.90
25024;DHT22;13033;50.936;5.334;2023-04-15T00:34:22;10.00;99.90
25024;DHT22;13033;50.936;5.334;2023-04-15T00:36:48;10.00;99.90
25024;DHT22;13033;50.936;5.334;2023-04-15T00:39:13;10.10;99.90
25024;DHT22;13033;50.936;5.334;2023-04-15T00:41:40;10.20;99.90
25024;DHT22;13033;50.936;5.334;2023-04-15T00:44:07;10.10;99.90
25024;DHT22;13033;50.936;5.334;2023-04-15T00:46:35;10.20;99.90
25024;DHT22;13033;50.936;5.334;2023-04-15T00:49:03;10.20;99.90
25024;DHT22;13033;50.936;5.334;2023-04-15T00:51:29;10.40;99.90
25024;DHT22;13033;50.936;5.334;2023-04-15T00:53:58;10.50;99.90
25024;DHT22;13033;50.936;5.334;2023-04-15T00:56:25;10.50;99.90
25024;DHT22;13033;50.936;5.334;2023-04-15T00:58:51;10.50;99.90
25024;DHT22;13033;50.936;5.334;2023-04-15T01:01:21;10.40;99.90
25024;DHT22;13033;50.936;5.334;2023-04-15T01:03:49;10.40;99.90
25024;DHT22;13033;50.936;5.334;2023-04-15T01:06:16;10.40;99.90
25024;DHT22;13033;50.936;5.334;2023-04-15T01:08:42;10.40;99.90
25024;DHT22;13033;50.936;5.334;2023-04-15T01:11:08;10.40;99.90
25024;DHT22;13033;50.936;5.334;2023-04-15T01:13:35;10.40;99.90
25024;DHT22;13033;50.936;5.334;2023-04-15T01:16:01;10.30;99.90
25024;DHT22;13033;50.936;5.334;2023-04-15T01:18:28;10.20;99.90
25024;DHT22;13033;50.936;5.334;2023-04-15T01:20:53;10.30;99.90
25024;DHT22;13033;50.936;5.334;2023-04-15T01:23:20;10.50;99.90
25024;DHT22;13033;50.936;5.334;2023-04-15T01:25:48;10.70;99.90
25024;DHT22;13033;50.936;5.334;2023-04-15T01:28:15;10.80;99.90
25024;DHT22;13033;50.936;5.334;2023-04-15T01:30:41;10.90;99.90
25024;DHT22;13033;50.936;5.334;2023-04-15T01:33:07;10.90;99.90
25024;DHT22;13033;50.936;5.334;2023-04-15T01:35:33;10.80;99.90
25024;DHT22;13033;50.936;5.334;2023-04-15T01:38:06;10.80;99.90
25024;DHT22;13033;50.936;5.334;2023-04-15T01:40:33;10.70;99.90
25024;DHT22;13033;50.936;5.334;2023-04-15T01:43:00;10.80;99.90
25024;DHT22;13033;50.936;5.334;2023-04-15T01:45:26;10.70;99.90
25024;DHT22;13033;50.936;5.334;2023-04-15T01:47:52;10.50;99.90
25024;DHT22;13033;50.936;5.334;2023-04-15T01:50:18;10.50;99.90
25024;DHT22;13033;50.936;5.334;2023-04-15T01:52:45;10.50;99.90
25024;DHT22;13033;50.936;5.334;2023-04-15T01:55:11;10.30;99.90
25024;DHT22;13033;50.936;5.334;2023-04-15T01:57:37;10.30;99.90
25024;DHT22;13033;50.936;5.334;2023-04-15T02:00:04;10.30;99.90
25024;DHT22;13033;50.936;5.334;2023-04-15T02:02:29;10.40;99.90
25024;DHT22;13033;50.936;5.334;2023-04-15T02:04:55;10.40;99.90
25024;DHT22;13033;50.936;5.334;2023-04-15T02:07:21;10.00;99.90
25024;DHT22;13033;50.936;5.334;2023-04-15T02:09:46;9.90;99.90
25024;DHT22;13033;50.936;5.334;2023-04-15T02:12:12;10.10;99.90
25024;DHT22;13033;50.936;5.334;2023-04-15T02:14:38;10.20;99.90
25024;DHT22;13033;50.936;5.334;2023-04-15T02:17:04;10.40;99.90
25024;DHT22;13033;50.936;5.334;2023-04-15T02:19:36;10.60;99.90
25024;DHT22;13033;50.936;5.334;2023-04-15T02:22:02;10.70;99.90
25024;DHT22;13033;50.936;5.334;2023-04-15T02:24:29;10.70;99.90
25024;DHT22;13033;50.936;5.334;2023-04-15T02:26:55;10.70;99.90
25024;DHT22;13033;50.936;5.334;2023-04-15T02:29:21;10.80;99.90
25024;DHT22;13033;50.936;5.334;2023-04-15T02:31:48;10.70;99.90
25024;DHT22;13033;50.936;5.334;2023-04-15T02:34:13;10.80;99.90
25024;DHT22;13033;50.936;5.334;2023-04-15T02:36:39;10.70;99.90
25024;DHT22;13033;50.936;5.334;2023-04-15T02:39:05;10.60;99.90
25024;DHT22;13033;50.936;5.334;2023-04-15T02:41:31;10.60;99.90
25024;DHT22;13033;50.936;5.334;2023-04-15T02:43:57;10.30;99.90
25024;DHT22;13033;50.936;5.334;2023-04-15T02:46:22;10.20;99.90
25024;DHT22;13033;50.936;5.334;2023-04-15T02:48:48;10.50;99.90
25024;DHT22;13033;50.936;5.334;2023-04-15T02:51:16;10.70;99.90
25024;DHT22;13033;50.936;5.334;2023-04-15T02:53:44;10.90;99.90
25024;DHT22;13033;50.936;5.334;2023-04-15T02:56:10;10.70;99.90
25024;DHT22;13033;50.936;5.334;2023-04-15T02:58:37;10.50;99.90
25024;DHT22;13033;50.936;5.334;2023-04-15T03:01:03;10.60;99.90
25024;DHT22;13033;50.936;5.334;2023-04-15T03:03:29;10.40;99.90
25024;DHT22;13033;50.936;5.334;2023-04-15T03:05:55;10.40;99.90
25024;DHT22;13033;50.936;5.334;2023-04-15T03:08:21;10.50;99.90
25024;DHT22;13033;50.936;5.334;2023-04-15T03:10:46;10.40;99.90
25024;DHT22;13033;50.936;5.334;2023-04-15T03:13:12;10.50;99.90
25024;DHT22;13033;50.936;5.334;2023-04-15T03:15:38;10.70;99.90
25024;DHT22;13033;50.936;5.334;2023-04-15T03:18:04;10.50;99.90
25024;DHT22;13033;50.936;5.334;2023-04-15T03:20:29;10.60;99.90
25024;DHT22;13033;50.936;5.334;2023-04-15T03:22:55;10.60;99.90
25024;DHT22;13033;50.936;5.334;2023-04-15T03:25:21;10.60;99.90
25024;DHT22;13033;50.936;5.334;2023-04-15T03:27:47;10.50;99.90
25024;DHT22;13033;50.936;5.334;2023-04-15T03:30:12;10.40;99.90
25024;DHT22;13033;50.936;5.334;2023-04-15T03:32:38;10.40;99.90
25024;DHT22;13033;50.936;5.334;2023-04-15T03:35:04;10.30;99.90
25024;DHT22;13033;50.936;5.334;2023-04-15T03:37:30;10.30;99.90
25024;DHT22;13033;50.936;5.334;2023-04-15T03:39:56;10.40;99.90
25024;DHT22;13033;50.936;5.334;2023-04-15T03:42:22;10.70;99.90
25024;DHT22;13033;50.936;5.334;2023-04-15T03:44:47;10.90;99.90
25024;DHT22;13033;50.936;5.334;2023-04-15T03:47:13;10.90;99.90
25024;DHT22;13033;50.936;5.334;2023-04-15T03:49:38;10.80;99.90
25024;DHT22;13033;50.936;5.334;2023-04-15T03:52:04;11.00;99.90
25024;DHT22;13033;50.936;5.334;2023-04-15T03:54:30;11.00;99.90
25024;DHT22;13033;50.936;5.334;2023-04-15T03:56:56;11.00;99.90
25024;DHT22;13033;50.936;5.334;2023-04-15T03:59:22;11.00;99.90
25024;DHT22;13033;50.936;5.334;2023-04-15T04:01:48;11.00;99.90
25024;DHT22;13033;50.936;5.334;2023-04-15T04:04:13;11.00;99.90
25024;DHT22;13033;50.936;5.334;2023-04-15T04:06:40;11.00;99.90
25024;DHT22;13033;50.936;5.334;2023-04-15T04:09:05;11.00;99.90
25024;DHT22;13033;50.936;5.334;2023-04-15T04:11:31;10.90;99.90
25024;DHT22;13033;50.936;5.334;2023-04-15T04:13:57;10.90;99.90
25024;DHT22;13033;50.936;5.334;2023-04-15T04:16:23;10.90;99.90
25024;DHT22;13033;50.936;5.334;2023-04-15T04:18:48;10.90;99.90
25024;DHT22;13033;50.936;5.334;2023-04-15T04:21:14;10.90;99.90
25024;DHT22;13033;50.936;5.334;2023-04-15T04:23:45;10.90;99.90
25024;DHT22;13033;50.936;5.334;2023-04-15T04:26:11;10.80;99.90
25024;DHT22;13033;50.936;5.334;2023-04-15T04:28:37;10.80;99.90
25024;DHT22;13033;50.936;5.334;2023-04-15T04:31:05;10.80;99.90
25024;DHT22;13033;50.936;5.334;2023-04-15T04:33:32;10.70;99.90
25024;DHT22;13033;50.936;5.334;2023-04-15T04:35:57;10.70;99.90
25024;DHT22;13033;50.936;5.334;2023-04-15T04:38:23;10.80;99.90
25024;DHT22;13033;50.936;5.334;2023-04-15T04:40:48;10.70;99.90
25024;DHT22;13033;50.936;5.334;2023-04-15T04:43:14;10.70;99.90
25024;DHT22;13033;50.936;5.334;2023-04-15T04:45:40;10.50;99.90
25024;DHT22;13033;50.936;5.334;2023-04-15T04:48:06;10.30;99.90
25024;DHT22;13033;50.936;5.334;2023-04-15T04:50:33;10.20;99.90
25024;DHT22;13033;50.936;5.334;2023-04-15T04:53:00;10.20;99.90
25024;DHT22;13033;50.936;5.334;2023-04-15T04:55:25;10.20;99.90
25024;DHT22;13033;50.936;5.334;2023-04-15T04:57:51;10.20;99.90
25024;DHT22;13033;50.936;5.334;2023-04-15T05:00:17;10.30;99.90
25024;DHT22;13033;50.936;5.334;2023-04-15T05:02:43;10.20;99.90
25024;DHT22;13033;50.936;5.334;2023-04-15T05:05:09;10.20;99.90
25024;DHT22;13033;50.936;5.334;2023-04-15T05:07:36;10.10;99.90
25024;DHT22;13033;50.936;5.334;2023-04-15T05:10:03;10.20;99.90
25024;DHT22;13033;50.936;5.334;2023-04-15T05:12:29;10.20;99.90
25024;DHT22;13033;50.936;5.334;2023-04-15T05:14:54;10.20;99.90
25024;DHT22;13033;50.936;5.334;2023-04-15T05:17:20;10.20;99.90
25024;DHT22;13033;50.936;5.334;2023-04-15T05:19:46;10.20;99.90
25024;DHT22;13033;50.936;5.334;2023-04-15T05:22:11;10.20;99.90
25024;DHT22;13033;50.936;5.334;2023-04-15T05:24:37;10.40;99.90
25024;DHT22;13033;50.936;5.334;2023-04-15T05:27:03;10.50;99.90
25024;DHT22;13033;50.936;5.334;2023-04-15T05:29:29;10.30;99.90
25024;DHT22;13033;50.936;5.334;2023-04-15T05:31:55;10.40;99.90
25024;DHT22;13033;50.936;5.334;2023-04-15T05:34:21;10.20;99.90
25024;DHT22;13033;50.936;5.334;2023-04-15T05:36:46;10.40;99.90
25024;DHT22;13033;50.936;5.334;2023-04-15T05:39:12;10.30;99.90
25024;DHT22;13033;50.936;5.334;2023-04-15T05:41:38;10.20;99.90
25024;DHT22;13033;50.936;5.334;2023-04-15T05:44:03;10.10;99.90
25024;DHT22;13033;50.936;5.334;2023-04-15T05:46:29;10.10;99.90
25024;DHT22;13033;50.936;5.334;2023-04-15T05:48:55;10.10;99.90
25024;DHT22;13033;50.936;5.334;2023-04-15T05:51:21;10.20;99.90
25024;DHT22;13033;50.936;5.334;2023-04-15T05:53:46;10.20;99.90
25024;DHT22;13033;50.936;5.334;2023-04-15T05:56:12;10.10;99.90
25024;DHT22;13033;50.936;5.334;2023-04-15T05:58:37;10.30;99.90
25024;DHT22;13033;50.936;5.334;2023-04-15T06:01:03;10.30;99.90
25024;DHT22;13033;50.936;5.334;2023-04-15T06:03:29;10.40;99.90
25024;DHT22;13033;50.936;5.334;2023-04-15T06:05:55;10.30;99.90
25024;DHT22;13033;50.936;5.334;2023-04-15T06:08:21;10.20;99.90
25024;DHT22;13033;50.936;5.334;2023-04-15T06:10:47;10.20;99.90
25024;DHT22;13033;50.936;5.334;2023-04-15T06:13:12;10.30;99.90
25024;DHT22;13033;50.936;5.334;2023-04-15T06:15:38;10.30;99.90
25024;DHT22;13033;50.936;5.334;2023-04-15T06:18:04;10.20;99.90
25024;DHT22;13033;50.936;5.334;2023-04-15T06:20:29;10.40;99.90
25024;DHT22;13033;50.936;5.334;2023-04-15T06:22:55;10.30;99.90
25024;DHT22;13033;50.936;5.334;2023-04-15T06:25:21;10.30;99.90
25024;DHT22;13033;50.936;5.334;2023-04-15T06:27:47;10.40;99.90
25024;DHT22;13033;50.936;5.334;2023-04-15T06:30:13;10.40;99.90
25024;DHT22;13033;50.936;5.334;2023-04-15T06:32:39;10.50;99.90
25024;DHT22;13033;50.936;5.334;2023-04-15T06:35:05;10.60;99.90
25024;DHT22;13033;50.936;5.334;2023-04-15T06:37:30;10.60;99.90
25024;DHT22;13033;50.936;5.334;2023-04-15T06:39:57;10.80;99.90
25024;DHT22;13033;50.936;5.334;2023-04-15T06:42:22;10.90;99.90
25024;DHT22;13033;50.936;5.334;2023-04-15T06:44:49;11.00;99.90
25024;DHT22;13033;50.936;5.334;2023-04-15T06:47:14;11.10;99.90
25024;DHT22;13033;50.936;5.334;2023-04-15T06:49:40;11.20;99.90
25024;DHT22;13033;50.936;5.334;2023-04-15T06:52:07;11.40;99.90
25024;DHT22;13033;50.936;5.334;2023-04-15T06:54:33;11.60;99.90
25024;DHT22;13033;50.936;5.334;2023-04-15T06:56:59;11.70;99.90
25024;DHT22;13033;50.936;5.334;2023-04-15T06:59:24;11.80;99.90
25024;DHT22;13033;50.936;5.334;2023-04-15T07:01:50;12.00;99.90
25024;DHT22;13033;50.936;5.334;2023-04-15T07:04:16;11.90;99.90
25024;DHT22;13033;50.936;5.334;2023-04-15T07:06:42;12.00;99.90
25024;DHT22;13033;50.936;5.334;2023-04-15T07:09:07;11.80;99.90
25024;DHT22;13033;50.936;5.334;2023-04-15T07:11:33;11.90;99.90
25024;DHT22;13033;50.936;5.334;2023-04-15T07:13:59;12.10;99.90
25024;DHT22;13033;50.936;5.334;2023-04-15T07:16:25;11.90;99.90
25024;DHT22;13033;50.936;5.334;2023-04-15T07:18:50;11.90;99.90
25024;DHT22;13033;50.936;5.334;2023-04-15T07:21:16;11.90;99.90
25024;DHT22;13033;50.936;5.334;2023-04-15T07:23:42;12.10;99.90
25024;DHT22;13033;50.936;5.334;2023-04-15T07:26:08;12.20;99.90
25024;DHT22;13033;50.936;5.334;2023-04-15T07:28:34;12.40;99.90
25024;DHT22;13033;50.936;5.334;2023-04-15T07:30:59;12.50;99.90
25024;DHT22;13033;50.936;5.334;2023-04-15T07:33:25;12.50;99.90
25024;DHT22;13033;50.936;5.334;2023-04-15T07:35:51;12.40;99.90
25024;DHT22;13033;50.936;5.334;2023-04-15T07:38:16;12.40;99.90
25024;DHT22;13033;50.936;5.334;2023-04-15T07:40:42;12.60;99.90
25024;DHT22;13033;50.936;5.334;2023-04-15T07:43:08;12.70;99.90
25024;DHT22;13033;50.936;5.334;2023-04-15T07:45:34;12.80;99.90
25024;DHT22;13033;50.936;5.334;2023-04-15T07:48:01;12.90;99.90
25024;DHT22;13033;50.936;5.334;2023-04-15T07:50:27;13.00;99.90
25024;DHT22;13033;50.936;5.334;2023-04-15T07:52:52;13.10;99.90
25024;DHT22;13033;50.936;5.334;2023-04-15T07:55:18;13.30;99.90
25024;DHT22;13033;50.936;5.334;2023-04-15T07:57:46;13.40;99.90
25024;DHT22;13033;50.936;5.334;2023-04-15T08:00:12;13.50;99.90
25024;DHT22;13033;50.936;5.334;2023-04-15T08:02:38;13.70;99.90
25024;DHT22;13033;50.936;5.334;2023-04-15T08:05:04;13.60;99.90
25024;DHT22;13033;50.936;5.334;2023-04-15T08:07:30;13.40;99.90
25024;DHT22;13033;50.936;5.334;2023-04-15T08:09:56;13.40;99.90
25024;DHT22;13033;50.936;5.334;2023-04-15T08:12:22;13.40;99.90
25024;DHT22;13033;50.936;5.334;2023-04-15T08:14:49;13.40;99.90
25024;DHT22;13033;50.936;5.334;2023-04-15T08:17:15;13.50;99.90
25024;DHT22;13033;50.936;5.334;2023-04-15T08:19:41;13.60;99.90
25024;DHT22;13033;50.936;5.334;2023-04-15T08:22:07;13.80;99.90
25024;DHT22;13033;50.936;5.334;2023-04-15T08:24:33;13.70;99.90
25024;DHT22;13033;50.936;5.334;2023-04-15T08:26:59;13.60;99.90
25024;DHT22;13033;50.936;5.334;2023-04-15T08:29:26;13.60;99.90
25024;DHT22;13033;50.936;5.334;2023-04-15T08:31:53;13.60;99.90
25024;DHT22;13033;50.936;5.334;2023-04-15T08:34:18;13.40;99.90
25024;DHT22;13033;50.936;5.334;2023-04-15T08:36:44;13.30;99.90
25024;DHT22;13033;50.936;5.334;2023-04-15T08:39:09;13.50;99.90
25024;DHT22;13033;50.936;5.334;2023-04-15T08:42:01;13.70;99.90
25024;DHT22;13033;50.936;5.334;2023-04-15T08:44:33;13.70;99.90
25024;DHT22;13033;50.936;5.334;2023-04-15T08:47:00;13.70;99.90
25024;DHT22;13033;50.936;5.334;2023-04-15T08:49:28;13.70;99.90
25024;DHT22;13033;50.936;5.334;2023-04-15T08:51:54;13.60;99.90
25024;DHT22;13033;50.936;5.334;2023-04-15T08:54:22;13.60;99.90
25024;DHT22;13033;50.936;5.334;2023-04-15T08:56:48;13.60;99.90
25024;DHT22;13033;50.936;5.334;2023-04-15T08:59:14;13.80;99.90
25024;DHT22;13033;50.936;5.334;2023-04-15T09:01:41;14.00;99.90
25024;DHT22;13033;50.936;5.334;2023-04-15T09:04:06;14.10;99.90
25024;DHT22;13033;50.936;5.334;2023-04-15T09:06:32;14.10;99.90
25024;DHT22;13033;50.936;5.334;2023-04-15T09:08:58;14.10;99.90
25024;DHT22;13033;50.936;5.334;2023-04-15T09:11:24;14.10;99.90
25024;DHT22;13033;50.936;5.334;2023-04-15T09:13:50;14.10;99.90
25024;DHT22;13033;50.936;5.334;2023-04-15T09:16:15;14.00;99.90
25024;DHT22;13033;50.936;5.334;2023-04-15T09:18:42;14.10;99.90
25024;DHT22;13033;50.936;5.334;2023-04-15T09:21:10;14.20;99.90
25024;DHT22;13033;50.936;5.334;2023-04-15T09:23:37;14.40;99.90
25024;DHT22;13033;50.936;5.334;2023-04-15T09:26:04;14.60;99.90
25024;DHT22;13033;50.936;5.334;2023-04-15T09:28:30;14.60;99.90
25024;DHT22;13033;50.936;5.334;2023-04-15T09:30:59;14.50;99.90
25024;DHT22;13033;50.936;5.334;2023-04-15T09:33:26;14.70;99.90
25024;DHT22;13033;50.936;5.334;2023-04-15T09:36:01;14.80;99.90
25024;DHT22;13033;50.936;5.334;2023-04-15T09:38:27;14.70;99.90
25024;DHT22;13033;50.936;5.334;2023-04-15T09:40:53;14.70;99.90
25024;DHT22;13033;50.936;5.334;2023-04-15T09:43:19;14.60;99.90
25024;DHT22;13033;50.936;5.334;2023-04-15T09:45:54;14.70;99.90
25024;DHT22;13033;50.936;5.334;2023-04-15T09:48:22;14.90;99.90
25024;DHT22;13033;50.936;5.334;2023-04-15T09:50:50;15.10;99.90
25024;DHT22;13033;50.936;5.334;2023-04-15T09:53:22;14.90;99.90
25024;DHT22;13033;50.936;5.334;2023-04-15T09:55:56;14.70;99.90
25024;DHT22;13033;50.936;5.334;2023-04-15T09:58:24;14.80;99.90
25024;DHT22;13033;50.936;5.334;2023-04-15T10:00:52;14.90;99.90
25024;DHT22;13033;50.936;5.334;2023-04-15T10:05:50;14.90;99.90
25024;DHT22;13033;50.936;5.334;2023-04-15T10:08:24;14.90;99.90
25024;DHT22;13033;50.936;5.334;2023-04-15T10:10:50;15.00;99.90
25024;DHT22;13033;50.936;5.334;2023-04-15T10:13:20;15.00;99.90
25024;DHT22;13033;50.936;5.334;2023-04-15T10:16:02;15.10;99.90
25024;DHT22;13033;50.936;5.334;2023-04-15T10:18:31;15.10;99.90
25024;DHT22;13033;50.936;5.334;2023-04-15T10:21:00;15.40;99.90
25024;DHT22;13033;50.936;5.334;2023-04-15T10:23:25;15.40;99.90
25024;DHT22;13033;50.936;5.334;2023-04-15T10:25:53;15.60;99.90
25024;DHT22;13033;50.936;5.334;2023-04-15T10:28:19;15.40;96.70
25024;DHT22;13033;50.936;5.334;2023-04-15T10:30:47;15.30;97.10
25024;DHT22;13033;50.936;5.334;2023-04-15T10:33:16;15.40;94.00
25024;DHT22;13033;50.936;5.334;2023-04-15T10:35:44;15.40;93.10
25024;DHT22;13033;50.936;5.334;2023-04-15T10:38:37;15.40;94.60
25024;DHT22;13033;50.936;5.334;2023-04-15T10:41:26;15.40;95.70
25024;DHT22;13033;50.936;5.334;2023-04-15T10:44:01;15.50;97.40
25024;DHT22;13033;50.936;5.334;2023-04-15T10:46:41;15.60;95.50
25024;DHT22;13033;50.936;5.334;2023-04-15T10:49:14;15.60;95.90
25024;DHT22;13033;50.936;5.334;2023-04-15T10:51:43;15.60;95.50
25024;DHT22;13033;50.936;5.334;2023-04-15T11:02:58;15.90;97.30
25024;DHT22;13033;50.936;5.334;2023-04-15T11:05:48;15.90;98.00
25024;DHT22;13033;50.936;5.334;2023-04-15T11:08:14;15.60;98.50
25024;DHT22;13033;50.936;5.334;2023-04-15T11:20:42;15.50;98.80
25024;DHT22;13033;50.936;5.334;2023-04-15T11:23:10;15.50;99.40
25024;DHT22;13033;50.936;5.334;2023-04-15T11:25:36;15.80;98.50
25024;DHT22;13033;50.936;5.334;2023-04-15T11:28:02;15.70;97.80
25024;DHT22;13033;50.936;5.334;2023-04-15T11:30:31;15.80;98.50
25024;DHT22;13033;50.936;5.334;2023-04-15T11:33:02;15.80;97.70
25024;DHT22;13033;50.936;5.334;2023-04-15T11:35:30;16.10;97.80
25024;DHT22;13033;50.936;5.334;2023-04-15T11:37:56;16.10;96.90
25024;DHT22;13033;50.936;5.334;2023-04-15T11:40:24;16.20;95.30
25024;DHT22;13033;50.936;5.334;2023-04-15T11:45:35;16.40;96.30
25024;DHT22;13033;50.936;5.334;2023-04-15T11:48:12;16.50;96.50
25024;DHT22;13033;50.936;5.334;2023-04-15T11:50:39;16.60;96.20
25024;DHT22;13033;50.936;5.334;2023-04-15T11:53:10;16.40;96.20
25024;DHT22;13033;50.936;5.334;2023-04-15T11:55:45;16.50;96.30
25024;DHT22;13033;50.936;5.334;2023-04-15T11:58:22;16.60;96.60
25024;DHT22;13033;50.936;5.334;2023-04-15T12:03:25;16.70;93.40
25024;DHT22;13033;50.936;5.334;2023-04-15T12:13:54;16.60;94.60
25024;DHT22;13033;50.936;5.334;2023-04-15T12:16:21;16.80;94.30
25024;DHT22;13033;50.936;5.334;2023-04-15T12:18:51;16.60;91.90
25024;DHT22;13033;50.936;5.334;2023-04-15T12:21:21;16.70;91.90
25024;DHT22;13033;50.936;5.334;2023-04-15T12:23:57;16.70;91.20
25024;DHT22;13033;50.936;5.334;2023-04-15T12:26:33;16.80;91.10
25024;DHT22;13033;50.936;5.334;2023-04-15T12:29:06;16.70;91.80
25024;DHT22;13033;50.936;5.334;2023-04-15T12:31:36;17.00;92.20
25024;DHT22;13033;50.936;5.334;2023-04-15T12:34:03;16.80;87.30
25024;DHT22;13033;50.936;5.334;2023-04-15T12:36:32;16.80;85.80
25024;DHT22;13033;50.936;5.334;2023-04-15T12:39:02;16.90;81.80
25024;DHT22;13033;50.936;5.334;2023-04-15T12:41:28;16.60;76.80
25024;DHT22;13033;50.936;5.334;2023-04-15T12:43:54;16.60;80.50
25024;DHT22;13033;50.936;5.334;2023-04-15T12:46:20;16.60;82.80
25024;DHT22;13033;50.936;5.334;2023-04-15T12:48:46;16.70;82.20
25024;DHT22;13033;50.936;5.334;2023-04-15T12:51:12;17.00;83.40
25024;DHT22;13033;50.936;5.334;2023-04-15T12:53:38;17.20;84.30
25024;DHT22;13033;50.936;5.334;2023-04-15T12:56:04;17.00;79.10
25024;DHT22;13033;50.936;5.334;2023-04-15T12:58:30;16.80;80.70
25024;DHT22;13033;50.936;5.334;2023-04-15T13:00:56;17.10;81.10
25024;DHT22;13033;50.936;5.334;2023-04-15T13:03:22;17.30;83.50
25024;DHT22;13033;50.936;5.334;2023-04-15T13:05:47;17.30;82.10
25024;DHT22;13033;50.936;5.334;2023-04-15T13:08:13;17.40;82.70
25024;DHT22;13033;50.936;5.334;2023-04-15T13:10:39;17.30;82.60
25024;DHT22;13033;50.936;5.334;2023-04-15T13:13:06;17.20;83.40
25024;DHT22;13033;50.936;5.334;2023-04-15T13:15:32;16.90;85.80
25024;DHT22;13033;50.936;5.334;2023-04-15T13:17:58;17.00;87.00
25024;DHT22;13033;50.936;5.334;2023-04-15T13:20:24;17.10;83.70
25024;DHT22;13033;50.936;5.334;2023-04-15T13:22:51;17.20;83.20
25024;DHT22;13033;50.936;5.334;2023-04-15T13:25:17;17.00;83.30
25024;DHT22;13033;50.936;5.334;2023-04-15T13:27:43;17.00;83.80
25024;DHT22;13033;50.936;5.334;2023-04-15T13:30:09;17.10;83.10
25024;DHT22;13033;50.936;5.334;2023-04-15T13:32:34;17.10;83.10
25024;DHT22;13033;50.936;5.334;2023-04-15T13:35:00;17.10;84.70
25024;DHT22;13033;50.936;5.334;2023-04-15T13:37:26;17.20;83.70
25024;DHT22;13033;50.936;5.334;2023-04-15T13:39:52;17.50;83.80
25024;DHT22;13033;50.936;5.334;2023-04-15T13:42:18;17.40;84.20
25024;DHT22;13033;50.936;5.334;2023-04-15T13:44:44;17.70;85.00
25024;DHT22;13033;50.936;5.334;2023-04-15T13:47:10;17.80;85.00
25024;DHT22;13033;50.936;5.334;2023-04-15T13:49:36;17.90;86.60
25024;DHT22;13033;50.936;5.334;2023-04-15T13:52:01;17.90;85.60
25024;DHT22;13033;50.936;5.334;2023-04-15T13:54:27;17.90;84.20
25024;DHT22;13033;50.936;5.334;2023-04-15T13:56:54;17.70;83.80
25024;DHT22;13033;50.936;5.334;2023-04-15T13:59:21;17.40;83.00
25024;DHT22;13033;50.936;5.334;2023-04-15T14:01:47;17.20;84.40
25024;DHT22;13033;50.936;5.334;2023-04-15T14:04:13;17.30;85.60
25024;DHT22;13033;50.936;5.334;2023-04-15T14:06:38;17.20;84.60
25024;DHT22;13033;50.936;5.334;2023-04-15T14:09:04;17.00;85.90
25024;DHT22;13033;50.936;5.334;2023-04-15T14:11:30;17.10;86.80
25024;DHT22;13033;50.936;5.334;2023-04-15T14:13:55;17.20;88.30
25024;DHT22;13033;50.936;5.334;2023-04-15T14:16:21;17.30;89.00
25024;DHT22;13033;50.936;5.334;2023-04-15T14:18:47;17.30;88.60
25024;DHT22;13033;50.936;5.334;2023-04-15T14:21:12;17.20;87.90
25024;DHT22;13033;50.936;5.334;2023-04-15T14:23:39;17.00;87.30
25024;DHT22;13033;50.936;5.334;2023-04-15T14:26:05;16.90;87.20
25024;DHT22;13033;50.936;5.334;2023-04-15T14:28:31;17.00;88.30
25024;DHT22;13033;50.936;5.334;2023-04-15T14:30:56;17.30;88.10
25024;DHT22;13033;50.936;5.334;2023-04-15T14:33:22;17.60;88.00
25024;DHT22;13033;50.936;5.334;2023-04-15T14:35:48;18.00;87.80
25024;DHT22;13033;50.936;5.334;2023-04-15T14:38:14;18.40;86.60
25024;DHT22;13033;50.936;5.334;2023-04-15T14:40:40;18.20;87.00
25024;DHT22;13033;50.936;5.334;2023-04-15T14:43:06;18.40;86.60
25024;DHT22;13033;50.936;5.334;2023-04-15T14:45:32;18.10;87.20
25024;DHT22;13033;50.936;5.334;2023-04-15T14:47:58;17.70;88.70
25024;DHT22;13033;50.936;5.334;2023-04-15T14:50:23;17.50;89.80
25024;DHT22;13033;50.936;5.334;2023-04-15T14:52:49;17.40;90.60
25024;DHT22;13033;50.936;5.334;2023-04-15T14:55:15;17.50;91.30
25024;DHT22;13033;50.936;5.334;2023-04-15T14:57:41;18.00;90.60
25024;DHT22;13033;50.936;5.334;2023-04-15T15:00:08;17.90;90.50
25024;DHT22;13033;50.936;5.334;2023-04-15T15:02:35;18.20;90.20
25024;DHT22;13033;50.936;5.334;2023-04-15T15:05:01;18.40;88.70
25024;DHT22;13033;50.936;5.334;2023-04-15T15:07:27;17.90;90.30
25024;DHT22;13033;50.936;5.334;2023-04-15T15:09:54;17.30;90.90
25024;DHT22;13033;50.936;5.334;2023-04-15T15:12:20;17.70;91.40
25024;DHT22;13033;50.936;5.334;2023-04-15T15:14:47;19.20;89.30
25024;DHT22;13033;50.936;5.334;2023-04-15T15:17:13;21.00;83.80
25024;DHT22;13033;50.936;5.334;2023-04-15T15:19:39;22.20;79.30
25024;DHT22;13033;50.936;5.334;2023-04-15T15:22:04;21.80;76.60
25024;DHT22;13033;50.936;5.334;2023-04-15T15:24:30;22.00;75.60
25024;DHT22;13033;50.936;5.334;2023-04-15T15:26:56;22.30;73.60
25024;DHT22;13033;50.936;5.334;2023-04-15T15:29:22;21.80;69.10
25024;DHT22;13033;50.936;5.334;2023-04-15T15:31:48;21.50;70.30
25024;DHT22;13033;50.936;5.334;2023-04-15T15:34:15;21.60;71.30
25024;DHT22;13033;50.936;5.334;2023-04-15T15:36:41;21.60;72.20
25024;DHT22;13033;50.936;5.334;2023-04-15T15:39:07;22.00;71.40
25024;DHT22;13033;50.936;5.334;2023-04-15T15:41:33;22.10;71.30
25024;DHT22;13033;50.936;5.334;2023-04-15T15:43:58;22.80;69.70
25024;DHT22;13033;50.936;5.334;2023-04-15T15:46:25;22.70;68.80
25024;DHT22;13033;50.936;5.334;2023-04-15T15:48:52;21.80;70.80
25024;DHT22;13033;50.936;5.334;2023-04-15T15:51:19;22.00;70.90
25024;DHT22;13033;50.936;5.334;2023-04-15T15:53:45;21.80;69.10
25024;DHT22;13033;50.936;5.334;2023-04-15T15:56:11;21.80;70.40
25024;DHT22;13033;50.936;5.334;2023-04-15T15:58:36;21.90;70.20
25024;DHT22;13033;50.936;5.334;2023-04-15T16:01:02;22.40;69.60